Time;durP1;ratioP1;P1;durP2;ratioP2;P2;SDS_P1;SDS_P2;PMS_P1;PMS_P2;Temp;Humidity;BMP_temperature;BMP_pressure;BME280_temperature;BME280_humidity;BME280_pressure;Samples;Min_cycle;Max_cycle;Signal;HPM_P1;HPM_P2
2023/03/01 00:01:23;;;;;;;151.60;49.30;;;;;;;-2.11;65.92;102253.17;110955;1205;100702;-58
2023/03/01 00:03:48;;;;;;;146.90;51.10;;;;;;;-2.15;66.16;102253.55;110862;1208;140748;-58
2023/03/01 00:06:14;;;;;;;157.00;52.10;;;;;;;-2.19;66.11;102250.61;111034;1205;97633;-61
2023/03/01 00:08:40;;;;;;;156.90;50.60;;;;;;;-2.24;66.18;102249.73;110899;1206;140531;-58
2023/03/01 00:11:12;;;;;;;182.10;55.80;;;;;;;-2.27;66.20;102252.95;111087;1209;97199;-60
2023/03/01 00:13:38;;;;;;;166.10;55.50;;;;;;;-2.31;66.34;102250.89;111112;1208;108242;-65
2023/03/01 00:16:10;;;;;;;165.20;55.00;;;;;;;-2.34;66.40;102251.15;111160;1207;139284;-64
2023/03/01 00:18:35;;;;;;;166.20;56.30;;;;;;;-2.36;66.26;102250.36;110839;1206;99385;-64
2023/03/01 00:21:01;;;;;;;184.10;57.20;;;;;;;-2.39;66.24;102246.41;110839;1208;139402;-64
2023/03/01 00:23:27;;;;;;;182.60;59.20;;;;;;;-2.42;66.37;102245.59;111125;1206;97682;-63
2023/03/01 00:25:53;;;;;;;183.70;58.40;;;;;;;-2.46;66.39;102244.44;110861;1216;97215;-63
2023/03/01 00:28:19;;;;;;;181.00;60.10;;;;;;;-2.48;66.42;102243.30;110983;1206;140915;-65
2023/03/01 00:30:45;;;;;;;191.10;61.70;;;;;;;-2.47;66.71;102238.41;110989;1208;96395;-63
2023/03/01 00:33:10;;;;;;;196.10;61.30;;;;;;;-2.46;66.69;102237.77;110939;1206;140317;-64
2023/03/01 00:35:36;;;;;;;200.30;60.50;;;;;;;-2.46;66.64;102232.52;111018;1208;98201;-64
2023/03/01 00:38:01;;;;;;;186.60;61.30;;;;;;;-2.46;66.74;102229.17;111127;1205;97676;-65
2023/03/01 00:40:29;;;;;;;182.40;61.60;;;;;;;-2.47;66.73;102225.99;110982;1220;139064;-64
2023/03/01 00:42:55;;;;;;;188.00;58.40;;;;;;;-2.49;66.51;102224.88;111169;1205;99121;-66
2023/03/01 00:45:20;;;;;;;188.50;60.80;;;;;;;-2.51;66.72;102222.88;111119;1206;140705;-64
2023/03/01 00:47:46;;;;;;;185.50;58.40;;;;;;;-2.54;66.99;102219.27;111228;1222;97590;-64
2023/03/01 00:50:11;;;;;;;192.10;61.40;;;;;;;-2.56;66.95;102217.45;111141;1206;97920;-64
2023/03/01 00:52:37;;;;;;;192.80;63.20;;;;;;;-2.60;66.95;102212.09;110943;1215;139734;-64
2023/03/01 00:55:04;;;;;;;183.90;58.80;;;;;;;-2.64;66.82;102210.55;111333;1209;97678;-64
2023/03/01 00:57:29;;;;;;;185.60;59.90;;;;;;;-2.67;67.06;102215.36;111091;1209;139634;-64
2023/03/01 00:59:55;;;;;;;206.20;65.80;;;;;;;-2.70;67.02;102213.33;111334;1205;98081;-64
2023/03/01 01:02:21;;;;;;;204.10;64.50;;;;;;;-2.73;67.31;102213.76;111150;1205;97660;-64
2023/03/01 01:04:47;;;;;;;202.30;66.50;;;;;;;-2.75;67.21;102212.28;110971;1208;139197;-64
2023/03/01 01:07:13;;;;;;;194.80;62.30;;;;;;;-2.76;67.12;102213.81;111142;1206;97596;-64
2023/03/01 01:09:39;;;;;;;199.30;64.40;;;;;;;-2.75;67.55;102211.19;110867;1218;141146;-64
2023/03/01 01:12:05;;;;;;;186.40;60.20;;;;;;;-2.76;67.21;102201.38;111194;1208;97687;-64
2023/03/01 01:14:30;;;;;;;173.60;57.10;;;;;;;-2.75;67.94;102199.65;111121;1206;98101;-64
2023/03/01 01:16:56;;;;;;;176.50;59.80;;;;;;;-2.75;67.73;102197.92;111047;1208;141183;-64
2023/03/01 01:19:22;;;;;;;167.00;58.00;;;;;;;-2.76;67.31;102194.39;111150;1206;98636;-64
2023/03/01 01:21:48;;;;;;;172.60;53.20;;;;;;;-2.74;67.50;102199.36;110951;1206;140115;-64
2023/03/01 01:24:15;;;;;;;155.90;50.90;;;;;;;-2.72;67.65;102203.98;111335;1220;97614;-64
2023/03/01 01:26:42;;;;;;;239.20;73.50;;;;;;;-2.69;67.46;102201.45;111130;1205;141673;-63
2023/03/01 01:29:08;;;;;;;193.00;63.50;;;;;;;-2.72;67.68;102198.22;111206;1213;97916;-64
2023/03/01 01:31:36;;;;;;;208.70;65.50;;;;;;;-2.75;67.79;102198.61;111117;1208;98209;-65
2023/03/01 01:34:04;;;;;;;210.30;66.70;;;;;;;-2.80;67.47;102198.45;110992;1206;141052;-64
2023/03/01 01:36:30;;;;;;;179.90;60.50;;;;;;;-2.83;67.95;102199.20;111202;1208;111457;-65
2023/03/01 01:38:56;;;;;;;182.00;60.60;;;;;;;-2.84;67.68;102198.30;110981;1209;140117;-64
2023/03/01 01:41:26;;;;;;;188.30;59.00;;;;;;;-2.84;67.90;102200.20;111139;1208;97671;-64
2023/03/01 01:44:25;;;;;;;197.50;62.60;;;;;;;-2.84;67.98;102197.77;111148;1205;96851;-64
2023/03/01 01:46:53;;;;;;;202.60;63.30;;;;;;;-2.85;68.34;102195.64;110800;1210;140551;-65
2023/03/01 01:49:22;;;;;;;191.10;63.00;;;;;;;-2.87;68.20;102190.47;111131;1206;99871;-66
2023/03/01 01:51:49;;;;;;;198.50;67.20;;;;;;;-2.89;68.41;102191.30;110873;1206;139162;-65
2023/03/01 01:54:27;;;;;;;210.90;66.30;;;;;;;-2.89;68.25;102188.48;110992;1206;97645;-65
2023/03/01 01:57:03;;;;;;;205.40;66.10;;;;;;;-2.89;68.72;102185.14;111031;1206;141653;-65
2023/03/01 01:59:32;;;;;;;206.70;66.80;;;;;;;-2.91;68.52;102179.85;110973;1209;111221;-65
2023/03/01 02:02:00;;;;;;;205.80;64.10;;;;;;;-2.92;68.59;102171.96;110989;1210;99735;-64
2023/03/01 02:04:25;;;;;;;220.10;67.90;;;;;;;-2.91;68.50;102178.96;110827;1221;139928;-65
2023/03/01 02:07:01;;;;;;;216.90;67.30;;;;;;;-2.93;68.37;102181.52;110826;1210;97696;-64
2023/03/01 02:09:26;;;;;;;215.00;67.50;;;;;;;-2.95;68.92;102180.09;110845;1206;139541;-65
2023/03/01 02:11:53;;;;;;;213.90;69.10;;;;;;;-2.95;68.72;102175.17;110843;1206;99184;-63
2023/03/01 02:14:19;;;;;;;188.90;61.80;;;;;;;-2.96;68.59;102171.63;110836;1210;97690;-63
2023/03/01 02:16:44;;;;;;;194.50;65.20;;;;;;;-2.98;68.65;102162.98;110747;1206;139319;-62
2023/03/01 02:19:21;;;;;;;203.80;64.30;;;;;;;-2.98;68.99;102151.62;110812;1210;97717;-63
2023/03/01 02:22:06;;;;;;;204.60;64.00;;;;;;;-3.01;68.78;102145.23;110740;1209;139758;-64
2023/03/01 02:24:43;;;;;;;197.10;60.60;;;;;;;-3.06;68.99;102136.49;110999;1210;98866;-64
2023/03/01 02:27:10;;;;;;;176.50;58.50;;;;;;;-3.09;68.76;102134.80;110746;1206;140664;-63
2023/03/01 02:29:35;;;;;;;198.60;57.80;;;;;;;-3.10;68.80;102140.52;110902;1209;98221;-63
2023/03/01 02:32:03;;;;;;;181.90;55.20;;;;;;;-3.10;69.08;102139.82;111041;1210;97581;-63
2023/03/01 02:34:31;;;;;;;167.90;52.90;;;;;;;-3.10;69.07;102139.13;110807;1206;138980;-64
2023/03/01 02:37:01;;;;;;;182.70;56.40;;;;;;;-3.10;69.17;102131.95;110892;1210;108524;-64
2023/03/01 02:39:34;;;;;;;165.20;53.80;;;;;;;-3.10;69.36;102135.62;110736;1209;142935;-63
2023/03/01 02:42:02;;;;;;;166.90;54.70;;;;;;;-3.10;69.24;102132.64;110854;1206;97675;-63
2023/03/01 02:44:27;;;;;;;157.10;53.30;;;;;;;-3.11;69.24;102130.52;110938;1210;113421;-63
2023/03/01 02:46:56;;;;;;;152.30;51.40;;;;;;;-3.12;69.33;102126.13;110774;1206;140116;-63
2023/03/01 02:49:23;;;;;;;165.70;53.30;;;;;;;-3.13;68.86;102122.77;110919;1206;97690;-63
2023/03/01 02:52:07;;;;;;;160.60;53.70;;;;;;;-3.14;69.14;102114.86;110714;1206;140614;-63
2023/03/01 02:55:00;;;;;;;162.30;53.70;;;;;;;-3.16;69.16;102117.76;110870;1206;97869;-62
2023/03/01 02:57:27;;;;;;;170.90;51.70;;;;;;;-3.16;69.39;102123.34;110829;1210;142316;-63
2023/03/01 02:59:56;;;;;;;163.40;52.10;;;;;;;-3.16;69.60;102130.84;110897;1206;97767;-63
2023/03/01 03:02:37;;;;;;;147.60;50.50;;;;;;;-3.17;69.89;102132.02;110931;1210;107342;-63
2023/03/01 03:05:08;;;;;;;;;;;;;;;-3.17;69.78;102131.34;111064;1209;97635;-63
2023/03/01 03:07:35;;;;;;;156.50;49.00;;;;;;;-3.18;69.64;102127.11;111065;1209;97787;-63
2023/03/01 03:10:02;;;;;;;155.00;49.60;;;;;;;-3.20;69.96;102126.52;110905;1208;140444;-63
2023/03/01 03:12:27;;;;;;;156.80;52.10;;;;;;;-3.20;69.67;102127.23;111091;1204;98186;-63
2023/03/01 03:14:52;;;;;;;161.50;50.80;;;;;;;-3.20;69.66;102124.25;110966;1204;139257;-63
2023/03/01 03:17:18;;;;;;;149.30;51.40;;;;;;;-3.21;69.61;102124.92;111121;1209;97615;-64
2023/03/01 03:19:45;;;;;;;160.70;50.00;;;;;;;-3.23;69.91;102118.20;111116;1222;97562;-63
2023/03/01 03:22:12;;;;;;;163.40;49.50;;;;;;;-3.25;69.94;102114.11;110921;1208;141181;-64
2023/03/01 03:24:37;;;;;;;167.00;50.70;;;;;;;-3.23;69.80;102113.11;111203;1205;97587;-63
2023/03/01 03:27:04;;;;;;;154.00;47.10;;;;;;;-3.22;70.17;102116.12;110990;1205;139562;-63
2023/03/01 03:29:29;;;;;;;142.80;46.20;;;;;;;-3.21;70.13;102116.85;111127;1205;97662;-64
2023/03/01 03:31:54;;;;;;;145.20;46.30;;;;;;;-3.20;70.02;102114.10;111179;1206;97605;-64
2023/03/01 03:34:20;;;;;;;123.60;43.50;;;;;;;-3.20;70.09;102108.00;110900;1205;140953;-63
2023/03/01 03:36:45;;;;;;;144.50;48.50;;;;;;;-3.19;70.03;102109.58;110952;1209;98253;-64
2023/03/01 03:39:10;;;;;;;139.30;47.80;;;;;;;-3.20;69.80;102108.50;111051;1206;139891;-63
2023/03/01 03:41:35;;;;;;;139.70;46.50;;;;;;;-3.21;70.04;102106.19;111119;1206;97855;-64
2023/03/01 03:44:01;;;;;;;146.20;48.00;;;;;;;-3.22;70.24;102112.97;111160;1205;97313;-63
2023/03/01 03:46:26;;;;;;;138.30;45.50;;;;;;;-3.25;70.41;102114.11;111008;1208;139082;-63
2023/03/01 03:48:51;;;;;;;133.80;46.40;;;;;;;-3.27;70.23;102122.09;111116;1206;97587;-64
2023/03/01 03:51:18;;;;;;;133.40;48.40;;;;;;;-3.28;70.29;102125.34;110988;1208;139822;-64
2023/03/01 03:53:45;;;;;;;160.70;50.20;;;;;;;-3.31;70.23;102115.84;111146;1206;97588;-64
2023/03/01 03:56:10;;;;;;;150.80;51.20;;;;;;;-3.34;70.20;102110.47;111108;1216;97686;-64
2023/03/01 03:58:36;;;;;;;138.30;44.80;;;;;;;-3.38;70.27;102109.41;111043;1208;138932;-64
2023/03/01 04:01:01;;;;;;;147.20;48.70;;;;;;;-3.41;70.66;102107.59;111087;1206;97629;-64
2023/03/01 04:03:28;;;;;;;126.50;44.50;;;;;;;-3.42;70.55;102109.13;111041;1208;140772;-64
2023/03/01 04:05:53;;;;;;;142.70;46.90;;;;;;;-3.42;70.46;102109.82;111319;1206;97725;-64
2023/03/01 04:08:21;;;;;;;147.10;46.70;;;;;;;-3.43;70.58;102110.13;111208;1209;97584;-64
2023/03/01 04:10:49;;;;;;;139.40;46.10;;;;;;;-3.43;70.46;102104.35;110908;1205;139650;-64
2023/03/01 04:13:21;;;;;;;124.70;44.70;;;;;;;-3.43;70.61;102105.58;111213;1205;97639;-63
2023/03/01 04:15:49;;;;;;;157.00;47.90;;;;;;;-3.43;70.51;102103.84;111022;1208;139577;-65
2023/03/01 04:18:16;;;;;;;141.10;46.20;;;;;;;-3.44;70.41;102100.13;111182;1206;100096;-64
2023/03/01 04:20:42;;;;;;;145.40;47.10;;;;;;;-3.44;70.64;102098.20;110945;1208;140642;-63
2023/03/01 04:23:12;;;;;;;144.80;47.30;;;;;;;-3.43;70.63;102099.27;111513;1206;97587;-65
2023/03/01 04:25:39;;;;;;;142.70;49.10;;;;;;;-3.42;70.95;102099.84;111115;1208;97946;-64
2023/03/01 04:28:04;;;;;;;153.80;50.70;;;;;;;-3.43;70.62;102101.56;111092;1205;140789;-64
2023/03/01 04:30:35;;;;;;;150.40;50.30;;;;;;;-3.45;70.82;102100.80;111190;1208;97687;-63
2023/03/01 04:33:07;;;;;;;145.20;47.20;;;;;;;-3.44;70.90;102100.13;111011;1206;140824;-63
2023/03/01 04:35:35;;;;;;;142.30;46.40;;;;;;;-3.44;70.86;102102.76;111155;1208;97717;-63
2023/03/01 04:38:01;;;;;;;151.50;49.10;;;;;;;-3.44;70.89;102107.48;111140;1206;111650;-63
2023/03/01 04:40:26;;;;;;;157.40;50.10;;;;;;;-3.44;70.94;102106.58;111113;1208;139212;-64
2023/03/01 04:42:52;;;;;;;156.80;51.80;;;;;;;-3.43;71.24;102108.02;111137;1206;97715;-63
2023/03/01 04:45:17;;;;;;;153.90;48.70;;;;;;;-3.44;71.16;102106.78;111049;1209;138972;-64
2023/03/01 04:47:45;;;;;;;143.10;48.50;;;;;;;-3.44;70.80;102106.23;111068;1208;97613;-65
2023/03/01 04:50:14;;;;;;;134.60;46.20;;;;;;;-3.45;71.05;102104.45;111169;1205;98164;-65
2023/03/01 04:52:39;;;;;;;143.60;45.30;;;;;;;-3.44;71.07;102104.32;111110;1206;139184;-65
2023/03/01 04:55:06;;;;;;;143.30;48.30;;;;;;;-3.44;71.08;102101.71;111163;1209;97651;-65
2023/03/01 04:57:31;;;;;;;148.80;47.10;;;;;;;-3.44;71.15;102099.09;111057;1208;141162;-64
2023/03/01 04:59:57;;;;;;;138.60;47.00;;;;;;;-3.45;71.19;102100.24;111095;1208;97718;-65
2023/03/01 05:02:22;;;;;;;148.80;45.10;;;;;;;-3.47;71.26;102098.42;111188;1213;96847;-65
2023/03/01 05:04:47;;;;;;;134.40;44.80;;;;;;;-3.47;71.18;102097.38;110918;1206;138810;-65
2023/03/01 05:07:19;;;;;;;125.30;43.60;;;;;;;-3.48;71.35;102099.80;111081;1208;97684;-65
2023/03/01 05:09:46;;;;;;;143.00;48.90;;;;;;;-3.48;71.26;102100.30;110914;1208;138857;-65
2023/03/01 05:12:12;;;;;;;146.70;46.50;;;;;;;-3.49;71.65;102097.48;111023;1208;97560;-65
2023/03/01 05:14:38;;;;;;;135.90;46.20;;;;;;;-3.49;71.68;102099.60;111084;1208;139280;-63
2023/03/01 05:17:03;;;;;;;151.70;50.60;;;;;;;-3.50;71.18;102096.74;111193;1209;97563;-63
2023/03/01 05:19:30;;;;;;;146.20;47.50;;;;;;;-3.51;71.45;102096.70;111056;1206;107129;-64
2023/03/01 05:22:05;;;;;;;130.00;46.20;;;;;;;-3.51;71.50;102096.88;111127;1208;139601;-64
2023/03/01 05:24:33;;;;;;;145.10;46.80;;;;;;;-3.50;71.66;102096.92;111213;1205;98023;-64
2023/03/01 05:26:59;;;;;;;132.20;45.70;;;;;;;-3.51;71.69;102099.52;111008;1208;139579;-63
2023/03/01 05:29:26;;;;;;;140.00;45.40;;;;;;;-3.51;71.66;102098.96;111162;1208;98271;-64
2023/03/01 05:31:57;;;;;;;145.40;46.90;;;;;;;-3.53;71.64;102103.11;111318;1208;97625;-64
2023/03/01 05:34:26;;;;;;;157.30;49.60;;;;;;;-3.54;71.67;102102.38;111029;1208;140064;-64
2023/03/01 05:36:53;;;;;;;146.10;49.00;;;;;;;-3.54;72.06;102101.86;111105;1205;97496;-64
2023/03/01 05:39:23;;;;;;;155.80;47.10;;;;;;;-3.56;71.94;102101.40;110952;1208;140081;-65
2023/03/01 05:41:52;;;;;;;144.60;48.90;;;;;;;-3.57;71.96;102102.95;111120;1208;99520;-64
2023/03/01 05:44:17;;;;;;;149.50;48.00;;;;;;;-3.57;72.02;102106.96;111208;1208;106645;-64
2023/03/01 05:46:43;;;;;;;152.90;50.40;;;;;;;-3.58;71.86;102112.53;111025;1208;140480;-64
2023/03/01 05:49:08;;;;;;;156.90;52.40;;;;;;;-3.60;71.81;102112.83;111233;1206;96459;-65
2023/03/01 05:51:33;;;;;;;151.10;50.50;;;;;;;-3.61;71.83;102113.65;111007;1206;139581;-64
2023/03/01 05:53:59;;;;;;;150.50;49.80;;;;;;;-3.62;71.79;102113.64;111154;1208;97581;-65
2023/03/01 05:56:24;;;;;;;151.40;49.30;;;;;;;-3.62;72.12;102116.23;111066;1206;98094;-65
2023/03/01 05:58:50;;;;;;;159.10;52.40;;;;;;;-3.62;71.96;102107.66;110925;1209;139421;-65
2023/03/01 06:01:15;;;;;;;160.70;51.60;;;;;;;-3.63;71.93;102107.48;111138;1208;98034;-64
2023/03/01 06:03:41;;;;;;;155.60;52.30;;;;;;;-3.63;72.11;102101.19;110863;1206;138970;-63
2023/03/01 06:06:06;;;;;;;143.00;50.30;;;;;;;-3.63;72.25;102101.88;111257;1209;97637;-64
2023/03/01 06:08:31;;;;;;;158.50;51.60;;;;;;;-3.65;72.06;102099.88;111046;1209;100339;-64
2023/03/01 06:10:57;;;;;;;151.70;51.30;;;;;;;-3.65;72.04;102094.65;110900;1206;138883;-65
2023/03/01 06:13:23;;;;;;;161.90;55.30;;;;;;;-3.64;72.01;102093.63;110967;1206;97804;-65
2023/03/01 06:15:49;;;;;;;178.60;57.60;;;;;;;-3.61;72.33;102093.73;110937;1208;139083;-64
2023/03/01 06:18:14;;;;;;;178.00;56.10;;;;;;;-3.58;72.04;102092.25;111063;1207;97727;-64
2023/03/01 06:20:39;;;;;;;164.40;53.60;;;;;;;-3.57;72.29;102088.80;110963;1206;139634;-63
2023/03/01 06:23:05;;;;;;;174.00;54.70;;;;;;;-3.56;72.24;102093.40;110989;1210;97671;-64
2023/03/01 06:25:30;;;;;;;174.70;57.00;;;;;;;-3.54;72.50;102097.48;111000;1206;97930;-64
2023/03/01 06:27:56;;;;;;;160.00;53.90;;;;;;;-3.49;72.19;102098.72;110808;1210;140107;-65
2023/03/01 06:30:24;;;;;;;172.20;56.50;;;;;;;-3.45;72.27;102094.31;110944;1209;97677;-65
2023/03/01 06:32:50;;;;;;;172.60;56.40;;;;;;;-3.44;72.36;102087.35;110844;1209;140263;-65
2023/03/01 06:35:17;;;;;;;175.50;56.70;;;;;;;-3.41;72.55;102086.09;110944;1210;96490;-64
2023/03/01 06:37:44;;;;;;;154.20;56.90;;;;;;;-3.36;72.46;102081.56;110928;1210;97611;-65
2023/03/01 06:40:11;;;;;;;169.80;56.40;;;;;;;-3.31;72.64;102079.81;110987;1209;138913;-65
2023/03/01 06:42:38;;;;;;;170.10;55.20;;;;;;;-3.27;72.92;102081.70;110969;1206;97569;-64
2023/03/01 06:45:05;;;;;;;164.70;54.90;;;;;;;-3.22;72.90;102086.59;111000;1209;141553;-64
2023/03/01 06:47:30;;;;;;;167.50;54.20;;;;;;;-3.17;72.95;102087.10;111063;1209;97585;-64
2023/03/01 06:49:56;;;;;;;152.70;52.40;;;;;;;-3.13;72.87;102083.26;111120;1208;97784;-64
2023/03/01 06:52:21;;;;;;;139.50;49.70;;;;;;;-3.06;73.00;102080.69;110940;1206;140187;-64
2023/03/01 06:54:46;;;;;;;130.80;45.30;;;;;;;-3.01;73.02;102077.39;110881;1208;97606;-65
2023/03/01 06:57:12;;;;;;;120.90;42.20;;;;;;;-2.94;72.96;102079.88;110950;1208;139561;-65
2023/03/01 06:59:37;;;;;;;104.20;34.90;;;;;;;-2.86;72.85;102075.06;111014;1209;97579;-65
2023/03/01 07:02:02;;;;;;;106.50;38.10;;;;;;;-2.78;72.95;102074.67;111081;1208;97686;-66
2023/03/01 07:04:31;;;;;;;113.80;36.70;;;;;;;-2.69;72.87;102078.65;110937;1206;138914;-65
2023/03/01 07:06:56;;;;;;;113.40;38.00;;;;;;;-2.60;73.13;102082.23;111021;1206;109202;-65
2023/03/01 07:09:23;;;;;;;115.80;35.10;;;;;;;-2.53;72.99;102081.77;110920;1208;139796;-65
2023/03/01 07:11:48;;;;;;;83.30;30.00;;;;;;;-2.44;73.32;102081.55;113352;1205;96836;-65
2023/03/01 07:14:14;;;;;;;92.40;31.10;;;;;;;-2.33;73.29;102087.32;113368;1205;99564;-65
2023/03/01 07:16:39;;;;;;;77.30;26.00;;;;;;;-2.21;73.32;102084.89;113165;1205;139161;-65
2023/03/01 07:19:05;;;;;;;72.70;24.90;;;;;;;-2.07;73.37;102083.75;112696;1205;97562;-65
2023/03/01 07:21:31;;;;;;;75.30;28.20;;;;;;;-1.97;73.15;102083.72;110906;1208;140711;-65
2023/03/01 07:23:56;;;;;;;74.70;26.80;;;;;;;-1.87;73.14;102089.80;110954;1208;97971;-65
2023/03/01 07:26:22;;;;;;;86.10;28.90;;;;;;;-1.78;73.23;102092.89;111015;1209;97903;-65
2023/03/01 07:28:47;;;;;;;65.20;22.80;;;;;;;-1.68;73.40;102088.62;110869;1206;139820;-66
2023/03/01 07:31:12;;;;;;;94.00;28.40;;;;;;;-1.57;73.50;102090.18;111062;1207;97611;-65
2023/03/01 07:33:38;;;;;;;91.60;34.00;;;;;;;-1.46;73.27;102089.79;110908;1206;139753;-65
2023/03/01 07:36:05;;;;;;;104.10;35.30;;;;;;;-1.37;73.43;102089.87;111046;1206;97669;-65
2023/03/01 07:38:30;;;;;;;98.60;36.70;;;;;;;-1.28;73.35;102087.48;111387;1208;97687;-65
2023/03/01 07:41:01;;;;;;;107.60;35.10;;;;;;;-1.21;73.22;102084.36;111068;1208;139659;-66
2023/03/01 07:43:28;;;;;;;76.70;29.00;;;;;;;-1.13;73.40;102084.75;111230;1205;107393;-65
2023/03/01 07:45:53;;;;;;;80.50;26.80;;;;;;;-1.04;73.42;102084.48;110983;1208;139542;-66
2023/03/01 07:48:19;;;;;;;59.60;22.50;;;;;;;-0.93;73.40;102086.17;111200;1206;97699;-66
2023/03/01 07:50:44;;;;;;;88.20;25.70;;;;;;;-0.81;73.40;102084.73;111054;1205;139941;-64
2023/03/01 07:53:10;;;;;;;70.00;25.20;;;;;;;-0.72;73.35;102086.55;110989;1208;97675;-63
2023/03/01 07:55:36;;;;;;;70.00;25.10;;;;;;;-0.62;73.46;102091.55;111127;1208;97597;-65
2023/03/01 07:58:01;;;;;;;79.90;25.40;;;;;;;-0.51;73.36;102087.42;111219;1205;139434;-64
2023/03/01 08:00:26;;;;;;;61.70;21.90;;;;;;;-0.42;73.55;102089.95;111170;1206;97578;-64
2023/03/01 08:02:51;;;;;;;68.10;22.70;;;;;;;-0.31;73.27;102090.04;110973;1213;138832;-63
2023/03/01 08:05:17;;;;;;;47.40;19.00;;;;;;;-0.19;73.32;102093.48;111150;1208;97642;-64
2023/03/01 08:07:42;;;;;;;70.00;22.90;;;;;;;-0.12;73.20;102086.10;110998;1206;96843;-64
2023/03/01 08:10:08;;;;;;;55.00;19.90;;;;;;;-0.04;73.18;102086.27;110908;1208;138787;-65
2023/03/01 08:12:34;;;;;;;54.10;20.50;;;;;;;0.04;73.24;102084.50;110812;1212;97591;-65
2023/03/01 08:14:59;;;;;;;49.70;20.00;;;;;;;0.13;73.16;102076.45;110924;1208;139568;-65
2023/03/01 08:17:25;;;;;;;51.90;17.30;;;;;;;0.21;73.08;102078.20;110981;1210;97579;-66
2023/03/01 08:19:50;;;;;;;47.50;16.10;;;;;;;0.29;73.00;102078.20;111099;1210;97680;-65
2023/03/01 08:22:15;;;;;;;47.20;16.60;;;;;;;0.37;72.99;102075.02;110917;1210;139618;-65
2023/03/01 08:24:41;;;;;;;44.70;17.00;;;;;;;0.45;72.91;102073.95;111078;1206;97588;-66
2023/03/01 08:27:06;;;;;;;43.70;16.00;;;;;;;0.52;72.77;102074.10;111015;1209;139395;-66
2023/03/01 08:29:32;;;;;;;44.70;17.70;;;;;;;0.58;72.69;102066.67;110978;1208;97598;-66
2023/03/01 08:31:58;;;;;;;42.50;15.10;;;;;;;0.66;72.52;102070.51;111131;1205;97392;-66
2023/03/01 08:34:23;;;;;;;54.90;17.60;;;;;;;0.72;72.25;102068.89;110994;1206;139184;-66
2023/03/01 08:36:50;;;;;;;53.00;18.00;;;;;;;0.80;72.40;102065.34;110948;1206;97582;-66
2023/03/01 08:39:18;;;;;;;52.00;19.10;;;;;;;0.88;72.24;102065.86;110902;1209;138479;-66
2023/03/01 08:41:43;;;;;;;54.00;21.00;;;;;;;0.97;71.94;102067.77;111079;1206;97581;-65
2023/03/01 08:44:11;;;;;;;55.80;21.00;;;;;;;1.04;72.03;102067.19;111082;1208;97697;-65
2023/03/01 08:46:41;;;;;;;49.00;18.50;;;;;;;1.11;71.87;102063.81;110910;1208;139099;-65
2023/03/01 08:49:10;;;;;;;55.30;21.70;;;;;;;1.20;71.85;102052.70;111145;1208;97744;-65
2023/03/01 08:51:36;;;;;;;52.40;19.20;;;;;;;1.28;72.01;102050.73;111181;1208;138133;-65
2023/03/01 08:54:06;;;;;;;50.00;16.60;;;;;;;1.40;71.75;102051.27;111362;1206;97626;-66
2023/03/01 08:56:32;;;;;;;32.40;13.40;;;;;;;1.51;71.66;102051.11;111085;1206;99591;-65
2023/03/01 08:58:58;;;;;;;32.30;11.30;;;;;;;1.59;71.39;102051.25;110892;1209;138322;-65
2023/03/01 09:01:23;;;;;;;37.70;12.00;;;;;;;1.65;71.36;102050.28;111118;1209;98997;-65
2023/03/01 09:03:48;;;;;;;31.20;12.20;;;;;;;1.69;71.21;102047.00;110900;1205;138572;-66
2023/03/01 09:06:15;;;;;;;39.30;13.10;;;;;;;1.75;71.04;102050.07;111048;1208;97667;-66
2023/03/01 09:08:44;;;;;;;30.60;13.90;;;;;;;1.80;70.72;102047.34;111049;1206;139688;-65
2023/03/01 09:11:12;;;;;;;38.20;14.20;;;;;;;1.88;70.70;102042.16;111077;1218;97638;-66
2023/03/01 09:13:38;;;;;;;31.10;11.50;;;;;;;1.96;70.61;102038.59;110995;1209;111549;-66
2023/03/01 09:16:05;;;;;;;27.00;10.50;;;;;;;2.05;70.39;102033.41;110981;1209;138252;-67
2023/03/01 09:18:30;;;;;;;29.10;10.90;;;;;;;2.12;70.38;102030.17;111104;1220;97607;-66
2023/03/01 09:21:13;;;;;;;26.30;10.60;;;;;;;2.19;69.98;102022.33;111093;1205;138360;-65
2023/03/01 09:23:42;;;;;;;30.90;10.30;;;;;;;2.25;69.94;102019.23;111113;1207;111982;-65
2023/03/01 09:26:18;;;;;;;30.50;11.60;;;;;;;2.32;69.68;102021.77;111169;1208;99795;-65
2023/03/01 09:28:45;;;;;;;33.90;10.50;;;;;;;2.39;69.38;102020.98;110920;1207;139363;-65
2023/03/01 09:31:14;;;;;;;22.90;9.80;;;;;;;2.47;69.50;102027.25;111106;1209;98052;-66
2023/03/01 09:33:41;;;;;;;29.00;10.40;;;;;;;2.53;68.94;102028.02;111037;1218;139458;-67
2023/03/01 09:36:10;;;;;;;31.50;11.50;;;;;;;2.56;68.42;102029.48;111308;1205;98138;-67
2023/03/01 09:38:36;;;;;;;27.10;10.00;;;;;;;2.65;68.51;102030.61;111131;1208;99459;-67
2023/03/01 09:41:01;;;;;;;31.00;11.30;;;;;;;2.73;68.32;102031.23;110919;1205;137732;-67
2023/03/01 09:43:33;;;;;;;27.40;10.40;;;;;;;2.77;68.22;102033.39;111535;1207;97674;-67
2023/03/01 09:46:09;;;;;;;31.60;11.20;;;;;;;2.81;68.00;102030.43;110877;1210;137718;-66
2023/03/01 09:48:43;;;;;;;28.20;10.90;;;;;;;2.83;67.92;102025.52;111057;1208;99595;-65
2023/03/01 09:51:16;;;;;;;30.50;9.90;;;;;;;2.85;67.95;102021.65;110903;1208;140927;-67
2023/03/01 09:53:41;;;;;;;24.00;11.10;;;;;;;2.88;67.42;102014.27;110963;1210;97815;-65
2023/03/01 09:56:27;;;;;;;25.80;9.20;;;;;;;2.91;67.58;102013.77;110961;1219;97650;-66
2023/03/01 09:59:05;;;;;;;29.60;10.90;;;;;;;2.97;67.70;102020.34;110763;1217;138719;-66
2023/03/01 10:01:39;;;;;;;26.30;11.60;;;;;;;3.04;67.51;102019.02;111038;1212;101291;-66
2023/03/01 10:04:35;;;;;;;26.20;11.00;;;;;;;3.11;67.41;102019.42;110952;1218;138631;-65
2023/03/01 10:07:06;;;;;;;29.20;11.00;;;;;;;3.18;67.22;102019.84;111042;1208;97750;-65
2023/03/01 10:09:37;;;;;;;23.70;10.60;;;;;;;3.22;67.11;102019.16;110912;1206;138559;-65
2023/03/01 10:12:10;;;;;;;32.40;10.10;;;;;;;3.25;66.77;102019.02;111104;1205;112195;-66
2023/03/01 10:14:40;;;;;;;26.80;11.20;;;;;;;3.30;66.71;102015.16;111074;1208;99967;-66
2023/03/01 10:17:19;;;;;;;28.20;9.20;;;;;;;3.38;66.65;102015.95;111132;1208;107961;-66
2023/03/01 10:19:46;;;;;;;18.90;8.10;;;;;;;3.48;66.59;102016.91;111063;1209;96491;-66
2023/03/01 10:22:29;;;;;;;21.40;7.70;;;;;;;3.55;66.11;102011.66;110878;1208;140666;-65
2023/03/01 10:24:58;;;;;;;16.90;7.60;;;;;;;3.62;66.49;102009.06;111073;1206;111197;-66
2023/03/01 10:27:25;;;;;;;17.00;6.70;;;;;;;3.72;66.50;102007.35;110968;1206;137849;-66
2023/03/01 10:30:19;;;;;;;21.90;8.20;;;;;;;3.82;66.64;102010.96;111050;1209;97696;-66
2023/03/01 10:32:48;;;;;;;17.90;7.20;;;;;;;3.92;66.42;102008.91;111230;1205;138095;-65
2023/03/01 10:35:20;;;;;;;14.50;5.90;;;;;;;4.02;66.63;102008.42;111126;1208;96454;-65
2023/03/01 10:38:10;;;;;;;16.50;6.30;;;;;;;4.10;66.30;102004.05;111084;1221;110025;-67
2023/03/01 10:40:51;;;;;;;17.30;7.30;;;;;;;4.15;66.16;102005.67;110893;1208;138408;-67
2023/03/01 10:43:17;;;;;;;23.00;7.80;;;;;;;4.18;66.24;101995.06;111111;1206;109108;-66
2023/03/01 10:45:42;;;;;;;18.60;7.40;;;;;;;4.25;66.29;101992.79;110936;1216;138392;-65
2023/03/01 10:48:19;;;;;;;22.00;7.10;;;;;;;4.31;66.31;101985.21;111135;1206;97594;-67
2023/03/01 10:50:55;;;;;;;16.00;6.70;;;;;;;4.38;66.14;101983.98;111038;1207;139227;-64
2023/03/01 10:53:26;;;;;;;14.70;5.80;;;;;;;4.41;65.88;101979.40;111103;1219;108696;-67
2023/03/01 10:55:59;;;;;;;14.70;5.50;;;;;;;4.39;65.61;101981.70;111132;1212;97681;-66
2023/03/01 10:58:25;;;;;;;15.70;6.40;;;;;;;4.41;65.37;101980.64;110960;1218;137975;-66